Time;durP1;ratioP1;P1;durP2;ratioP2;P2;SDS_P1;SDS_P2;PMS_P1;PMS_P2;Temp;Humidity;BMP_temperature;BMP_pressure;BME280_temperature;BME280_humidity;BME280_pressure;Samples;Min_cycle;Max_cycle;Signal;HPM_P1;HPM_P2
2021/09/07 00:01:19;;;;;;;18.30;16.40;;;13.40;99.90;;;;;;5087521;28;20456;-64
2021/09/07 00:03:46;;;;;;;17.77;15.90;;;13.40;99.90;;;;;;5087731;28;20470;-64
2021/09/07 00:06:17;;;;;;;20.13;16.53;;;13.40;99.90;;;;;;5081127;28;20486;-64
2021/09/07 00:08:44;;;;;;;22.00;17.60;;;13.50;99.90;;;;;;5079468;28;20454;-64
2021/09/07 00:11:11;;;;;;;19.33;17.27;;;13.50;99.90;;;;;;5084989;28;20450;-64
2021/09/07 00:13:38;;;;;;;21.80;19.00;;;13.50;99.90;;;;;;5088429;28;21133;-64
2021/09/07 00:16:05;;;;;;;21.00;18.73;;;13.40;99.90;;;;;;5088518;28;20504;-64
2021/09/07 00:18:32;;;;;;;19.70;17.50;;;13.30;99.90;;;;;;5088581;28;20457;-65
2021/09/07 00:20:59;;;;;;;19.87;17.87;;;13.30;99.90;;;;;;5088322;28;20456;-64
2021/09/07 00:23:27;;;;;;;19.70;17.50;;;13.40;99.90;;;;;;5088560;28;20849;-64
2021/09/07 00:25:54;;;;;;;28.17;19.83;;;13.30;99.90;;;;;;5088885;28;20474;-64
2021/09/07 00:28:21;;;;;;;20.47;18.00;;;13.30;99.90;;;;;;5089216;28;20472;-64
2021/09/07 00:30:48;;;;;;;20.83;18.63;;;13.30;99.90;;;;;;5089204;28;20446;-65
2021/09/07 00:33:15;;;;;;;20.93;18.27;;;13.20;99.90;;;;;;5088632;28;20466;-64
2021/09/07 00:35:42;;;;;;;23.20;20.70;;;13.20;99.90;;;;;;5089199;28;20823;-65
2021/09/07 00:38:09;;;;;;;22.67;19.70;;;13.10;99.90;;;;;;5088346;28;20450;-64
2021/09/07 00:40:38;;;;;;;21.00;18.70;;;13.10;99.90;;;;;;5088955;28;21044;-65
2021/09/07 00:43:05;;;;;;;23.00;19.27;;;13.10;99.90;;;;;;5089984;28;20450;-64
2021/09/07 00:45:32;;;;;;;24.07;19.07;;;13.00;99.90;;;;;;5090255;28;20482;-64
2021/09/07 00:47:59;;;;;;;24.07;17.40;;;13.10;99.90;;;;;;5090106;28;20446;-65
2021/09/07 00:50:26;;;;;;;20.73;18.70;;;13.00;99.90;;;;;;5090168;28;20453;-64
2021/09/07 00:52:55;;;;;;;22.03;19.73;;;13.00;99.90;;;;;;5088786;28;20446;-64
2021/09/07 00:55:24;;;;;;;24.73;21.13;;;12.90;99.90;;;;;;5089554;28;20544;-64
2021/09/07 00:57:55;;;;;;;22.90;20.00;;;12.90;99.90;;;;;;5090264;28;20541;-64
2021/09/07 01:00:21;;;;;;;24.30;21.70;;;12.90;99.90;;;;;;5094593;28;20947;-64
2021/09/07 01:02:48;;;;;;;23.60;21.10;;;12.80;99.90;;;;;;5096015;28;20457;-64
2021/09/07 01:05:15;;;;;;;22.53;20.17;;;12.90;99.90;;;;;;5095316;28;20473;-65
2021/09/07 01:07:42;;;;;;;23.10;20.70;;;13.00;99.90;;;;;;5089794;28;20461;-64
2021/09/07 01:10:10;;;;;;;24.17;20.07;;;12.90;99.90;;;;;;5090085;28;20442;-64
2021/09/07 01:12:37;;;;;;;24.47;20.13;;;12.90;99.90;;;;;;5089619;28;20454;-64
2021/09/07 01:15:07;;;;;;;23.87;21.33;;;12.90;99.90;;;;;;5090096;28;20819;-64
2021/09/07 01:17:35;;;;;;;23.20;19.40;;;12.80;99.90;;;;;;5089590;28;20452;-64
2021/09/07 01:20:02;;;;;;;23.37;20.73;;;12.70;99.90;;;;;;5089526;28;20537;-64
2021/09/07 01:22:28;;;;;;;22.23;19.40;;;12.80;99.90;;;;;;5089587;28;21102;-64
2021/09/07 01:24:57;;;;;;;22.80;20.40;;;12.80;99.90;;;;;;5089896;28;20558;-64
2021/09/07 01:27:24;;;;;;;23.07;20.53;;;12.80;99.90;;;;;;5089691;28;20484;-65
2021/09/07 01:29:51;;;;;;;22.67;20.13;;;12.70;99.90;;;;;;5090388;28;20450;-65
2021/09/07 01:32:19;;;;;;;23.40;20.87;;;12.60;99.90;;;;;;5092964;28;20529;-65
2021/09/07 01:34:46;;;;;;;23.53;20.27;;;12.60;99.90;;;;;;5093156;28;20470;-68
2021/09/07 01:37:13;;;;;;;24.63;21.90;;;12.70;99.90;;;;;;5093551;28;20508;-65
2021/09/07 01:39:40;;;;;;;23.63;20.63;;;12.60;99.90;;;;;;5093109;28;20457;-65
2021/09/07 01:42:09;;;;;;;23.33;19.80;;;12.60;99.90;;;;;;5093020;28;20446;-65
2021/09/07 01:44:42;;;;;;;26.10;21.10;;;12.50;99.90;;;;;;5092687;28;20480;-65
2021/09/07 01:47:10;;;;;;;24.63;21.37;;;12.50;99.90;;;;;;5092881;28;20474;-64
2021/09/07 01:49:37;;;;;;;21.17;18.83;;;12.50;99.90;;;;;;5092859;28;20482;-64
2021/09/07 01:52:11;;;;;;;22.33;20.00;;;12.40;99.90;;;;;;5092494;28;20546;-64
2021/09/07 01:54:42;;;;;;;22.07;19.00;;;12.40;99.90;;;;;;5093000;28;20465;-64
2021/09/07 01:57:11;;;;;;;24.17;20.63;;;12.50;99.90;;;;;;5092782;28;20442;-64
2021/09/07 01:59:38;;;;;;;23.07;20.47;;;12.50;99.90;;;;;;5092458;28;20452;-64
2021/09/07 02:02:06;;;;;;;23.63;20.20;;;12.40;99.90;;;;;;5092317;28;20450;-64
2021/09/07 02:04:32;;;;;;;21.33;19.03;;;12.30;99.90;;;;;;5092617;28;20476;-64
2021/09/07 02:06:59;;;;;;;20.60;18.50;;;12.30;99.90;;;;;;5092720;28;20477;-69
2021/09/07 02:09:27;;;;;;;23.17;20.80;;;12.40;99.90;;;;;;5092724;28;20955;-65
2021/09/07 02:11:54;;;;;;;27.70;21.47;;;12.40;99.90;;;;;;5093319;28;20446;-65
2021/09/07 02:14:22;;;;;;;21.70;19.40;;;12.40;99.90;;;;;;5093647;28;20979;-65
2021/09/07 02:16:49;;;;;;;23.80;20.67;;;12.40;99.90;;;;;;5093680;28;20438;-65
2021/09/07 02:19:16;;;;;;;22.23;19.57;;;12.40;99.90;;;;;;5094123;28;20477;-65
2021/09/07 02:21:43;;;;;;;22.37;19.97;;;12.40;99.90;;;;;;5092213;28;21189;-65
2021/09/07 02:24:10;;;;;;;25.47;20.20;;;12.30;99.90;;;;;;5092253;28;20462;-65
2021/09/07 02:26:37;;;;;;;28.13;21.60;;;12.30;99.90;;;;;;5092481;28;20482;-63
2021/09/07 02:29:04;;;;;;;23.67;21.10;;;12.30;99.90;;;;;;5092351;28;20542;-65
2021/09/07 02:31:33;;;;;;;23.97;20.93;;;12.30;99.90;;;;;;5092137;28;20452;-65
2021/09/07 02:34:00;;;;;;;21.23;19.03;;;12.30;99.90;;;;;;5091910;28;20552;-65
2021/09/07 02:36:27;;;;;;;24.20;21.60;;;12.30;99.90;;;;;;5092106;28;20500;-66
2021/09/07 02:38:54;;;;;;;25.30;20.90;;;12.30;99.90;;;;;;5092168;28;20453;-65
2021/09/07 02:41:21;;;;;;;23.53;20.67;;;12.20;99.90;;;;;;5091321;28;20446;-65
2021/09/07 02:43:48;;;;;;;23.30;19.80;;;12.20;99.90;;;;;;5091888;28;20473;-65
2021/09/07 02:46:15;;;;;;;25.83;21.40;;;12.10;99.90;;;;;;5091821;28;20516;-65
2021/09/07 02:48:43;;;;;;;26.03;21.77;;;12.10;99.90;;;;;;5091796;28;20462;-66
2021/09/07 02:51:10;;;;;;;23.87;19.93;;;12.10;99.90;;;;;;5091951;28;20442;-65
2021/09/07 02:53:37;;;;;;;23.70;20.50;;;12.10;99.90;;;;;;5091223;28;20857;-66
2021/09/07 02:56:05;;;;;;;23.93;19.27;;;12.10;99.90;;;;;;5091936;28;20439;-65
2021/09/07 02:58:32;;;;;;;21.50;19.20;;;12.20;99.90;;;;;;5091411;28;20465;-66
2021/09/07 03:00:58;;;;;;;22.03;18.97;;;12.10;99.90;;;;;;5091571;28;20447;-65
2021/09/07 03:03:25;;;;;;;21.30;18.50;;;12.10;99.90;;;;;;5091124;28;20498;-65
2021/09/07 03:05:53;;;;;;;21.20;18.27;;;12.10;99.90;;;;;;5091244;28;20470;-65
2021/09/07 03:08:20;;;;;;;21.60;19.40;;;12.20;99.90;;;;;;5091382;28;20448;-65
2021/09/07 03:10:47;;;;;;;22.77;18.87;;;12.10;99.90;;;;;;5091852;28;20450;-65
2021/09/07 03:13:14;;;;;;;23.50;20.47;;;12.10;99.90;;;;;;5091571;28;20836;-65
2021/09/07 03:15:41;;;;;;;23.93;19.70;;;12.10;99.90;;;;;;5091481;28;20826;-65
2021/09/07 03:18:09;;;;;;;22.03;19.70;;;12.10;99.90;;;;;;5091436;28;20534;-64
2021/09/07 03:20:35;;;;;;;22.13;18.47;;;12.10;99.90;;;;;;5091119;28;20446;-65
2021/09/07 03:23:04;;;;;;;24.53;19.13;;;12.20;99.90;;;;;;5090533;28;20952;-64
2021/09/07 03:25:31;;;;;;;23.13;20.10;;;12.20;99.90;;;;;;5091037;28;20819;-65
2021/09/07 03:27:58;;;;;;;26.90;20.17;;;12.20;99.90;;;;;;5091750;28;20484;-65
2021/09/07 03:30:25;;;;;;;26.30;20.33;;;12.10;99.90;;;;;;5090929;28;20450;-65
2021/09/07 03:32:52;;;;;;;27.53;22.70;;;12.10;99.90;;;;;;5090490;28;20454;-65
2021/09/07 03:35:19;;;;;;;24.43;20.90;;;12.00;99.90;;;;;;5090807;28;20449;-66
2021/09/07 03:37:46;;;;;;;24.27;19.37;;;12.10;99.90;;;;;;5090912;28;20442;-65
2021/09/07 03:40:15;;;;;;;21.00;18.80;;;12.10;99.90;;;;;;5090863;28;20446;-65
2021/09/07 03:42:42;;;;;;;22.80;20.27;;;12.10;99.90;;;;;;5090250;28;20534;-65
2021/09/07 03:45:12;;;;;;;22.10;19.23;;;12.10;99.90;;;;;;5090644;28;20466;-65
2021/09/07 03:47:39;;;;;;;21.77;18.40;;;12.00;99.90;;;;;;5090346;28;20474;-65
2021/09/07 03:50:07;;;;;;;26.33;20.33;;;12.00;99.90;;;;;;5090421;28;20484;-65
2021/09/07 03:52:34;;;;;;;22.50;18.83;;;12.00;99.90;;;;;;5089723;28;20489;-66
2021/09/07 03:55:00;;;;;;;21.50;19.07;;;11.90;99.90;;;;;;5090296;28;21226;-66
2021/09/07 03:57:29;;;;;;;23.27;19.63;;;11.90;99.90;;;;;;5090394;28;20450;-66
2021/09/07 03:59:56;;;;;;;20.80;18.17;;;11.80;99.90;;;;;;5090174;28;20528;-65
2021/09/07 04:02:23;;;;;;;22.00;18.63;;;11.80;99.90;;;;;;5090073;28;20936;-65
2021/09/07 04:04:50;;;;;;;22.33;17.47;;;11.70;99.90;;;;;;5090060;28;20498;-65
2021/09/07 04:07:17;;;;;;;27.33;19.63;;;11.70;99.90;;;;;;5090363;28;20581;-65
2021/09/07 04:09:44;;;;;;;26.77;19.57;;;11.80;99.90;;;;;;5090493;28;20442;-65
2021/09/07 04:12:11;;;;;;;24.33;19.33;;;11.70;99.90;;;;;;5090092;28;20537;-65
2021/09/07 04:14:40;;;;;;;25.67;20.80;;;11.80;99.90;;;;;;5090094;28;20983;-65
2021/09/07 04:17:08;;;;;;;24.37;20.40;;;11.90;99.90;;;;;;5090182;28;20487;-66
2021/09/07 04:19:35;;;;;;;26.40;19.43;;;11.80;99.90;;;;;;5090640;28;20859;-67
2021/09/07 04:22:02;;;;;;;21.83;19.30;;;11.80;99.90;;;;;;5089927;28;20541;-65
2021/09/07 04:24:28;;;;;;;23.53;20.53;;;11.80;99.90;;;;;;5090579;28;20476;-66
2021/09/07 04:26:55;;;;;;;25.17;21.80;;;11.90;99.90;;;;;;5090308;28;20484;-66
2021/09/07 04:29:22;;;;;;;23.40;20.90;;;11.90;99.90;;;;;;5090595;28;20507;-66
2021/09/07 04:31:50;;;;;;;28.90;20.60;;;11.90;99.90;;;;;;5089946;28;20450;-65
2021/09/07 04:34:17;;;;;;;26.33;20.70;;;11.80;99.90;;;;;;5090320;28;20472;-65
2021/09/07 04:36:44;;;;;;;23.43;19.63;;;11.90;99.90;;;;;;5090508;28;20446;-65
2021/09/07 04:39:11;;;;;;;24.07;20.70;;;11.90;99.90;;;;;;5090378;28;21211;-65
2021/09/07 04:41:37;;;;;;;24.50;20.50;;;11.90;99.90;;;;;;5089963;28;20450;-65
2021/09/07 04:44:04;;;;;;;29.53;20.40;;;11.90;99.90;;;;;;5090202;28;20466;-66
2021/09/07 04:46:31;;;;;;;23.73;21.00;;;11.90;99.90;;;;;;5090077;28;21120;-66
2021/09/07 04:49:00;;;;;;;24.10;20.87;;;12.00;99.90;;;;;;5090150;28;20533;-65
2021/09/07 04:51:27;;;;;;;23.57;20.03;;;12.00;99.90;;;;;;5089493;28;20450;-65
2021/09/07 04:53:56;;;;;;;22.00;19.67;;;12.00;99.90;;;;;;5089825;28;20535;-67
2021/09/07 04:56:22;;;;;;;25.50;20.80;;;12.00;99.90;;;;;;5089886;28;20441;-65
2021/09/07 04:58:49;;;;;;;24.27;20.90;;;11.90;99.90;;;;;;5090811;28;20450;-65
2021/09/07 05:01:17;;;;;;;29.87;23.77;;;11.90;99.90;;;;;;5090242;28;20515;-65
2021/09/07 05:03:43;;;;;;;24.10;20.10;;;11.80;99.90;;;;;;5090175;28;20463;-65
2021/09/07 05:06:12;;;;;;;25.67;21.70;;;11.90;99.90;;;;;;5092384;28;20541;-65
2021/09/07 05:08:38;;;;;;;26.20;21.97;;;12.00;99.90;;;;;;5093627;28;20474;-65
2021/09/07 05:11:05;;;;;;;29.43;21.83;;;12.10;99.90;;;;;;5093669;28;20485;-65
2021/09/07 05:13:32;;;;;;;25.07;19.03;;;12.20;99.90;;;;;;5092993;28;20472;-65
2021/09/07 05:15:59;;;;;;;21.90;18.37;;;12.00;99.90;;;;;;5093436;28;20450;-64
2021/09/07 05:18:26;;;;;;;23.70;20.23;;;12.00;99.90;;;;;;5093947;28;20528;-65
2021/09/07 05:20:52;;;;;;;23.53;20.13;;;12.00;99.90;;;;;;5093476;28;20561;-65
2021/09/07 05:23:21;;;;;;;20.33;18.03;;;12.00;99.90;;;;;;5093361;28;20926;-65
2021/09/07 05:25:47;;;;;;;24.57;20.30;;;12.00;99.90;;;;;;5093310;28;20533;-65
2021/09/07 05:28:14;;;;;;;20.90;17.90;;;12.10;99.90;;;;;;5093610;28;20482;-65
2021/09/07 05:30:41;;;;;;;22.07;18.90;;;12.10;99.90;;;;;;5093371;28;20473;-65
2021/09/07 05:33:08;;;;;;;20.47;17.13;;;12.20;99.90;;;;;;5092849;28;20439;-65
2021/09/07 05:35:35;;;;;;;24.63;17.77;;;12.20;99.90;;;;;;5093058;28;20454;-65
2021/09/07 05:38:04;;;;;;;19.63;17.03;;;12.40;99.90;;;;;;5093383;28;20442;-65
2021/09/07 05:40:32;;;;;;;20.20;17.63;;;12.40;99.90;;;;;;5092763;28;20454;-65
2021/09/07 05:42:59;;;;;;;22.27;17.60;;;12.50;99.90;;;;;;5092963;28;20438;-65
2021/09/07 05:45:26;;;;;;;18.63;16.03;;;12.70;99.90;;;;;;5093274;28;20450;-65
2021/09/07 05:47:53;;;;;;;20.97;18.80;;;12.70;99.90;;;;;;5093402;28;20537;-65
2021/09/07 05:50:20;;;;;;;21.17;17.30;;;12.80;99.90;;;;;;5093603;28;20442;-65
2021/09/07 05:52:47;;;;;;;19.90;16.83;;;12.80;99.90;;;;;;5092814;28;20450;-65
2021/09/07 05:55:14;;;;;;;18.00;16.10;;;12.90;99.90;;;;;;5092628;28;20549;-65
2021/09/07 05:57:42;;;;;;;21.30;17.00;;;13.00;99.90;;;;;;5092606;28;20833;-65
2021/09/07 06:00:10;;;;;;;23.97;18.40;;;12.90;99.90;;;;;;5092535;28;20477;-65
2021/09/07 06:02:37;;;;;;;20.27;18.07;;;13.00;99.90;;;;;;5091811;28;20442;-65
2021/09/07 06:05:06;;;;;;;20.47;17.70;;;13.20;99.90;;;;;;5092129;28;20478;-65
2021/09/07 06:07:33;;;;;;;22.20;17.37;;;13.30;99.90;;;;;;5092014;28;20485;-65
2021/09/07 06:09:59;;;;;;;20.07;17.90;;;13.30;99.90;;;;;;5092318;28;20444;-65
2021/09/07 06:12:26;;;;;;;21.67;18.33;;;13.40;99.90;;;;;;5091919;28;20541;-65
2021/09/07 06:14:54;;;;;;;18.80;16.67;;;13.50;99.90;;;;;;5091536;28;20476;-65
2021/09/07 06:17:21;;;;;;;19.43;17.27;;;13.50;99.90;;;;;;5084488;28;20442;-66
2021/09/07 06:19:48;;;;;;;20.40;16.93;;;13.50;99.90;;;;;;5091748;28;20446;-65
2021/09/07 06:22:15;;;;;;;21.13;15.93;;;13.60;99.90;;;;;;5091319;28;20947;-65
2021/09/07 06:24:42;;;;;;;17.87;15.73;;;13.70;99.90;;;;;;5087104;28;20468;-64
2021/09/07 06:27:09;;;;;;;17.80;15.37;;;13.90;99.90;;;;;;5092319;28;20478;-71
2021/09/07 06:29:36;;;;;;;19.53;16.90;;;14.10;99.90;;;;;;5092078;28;20446;-65
2021/09/07 06:32:05;;;;;;;17.60;15.73;;;14.20;99.90;;;;;;5091275;28;20446;-66
2021/09/07 06:34:32;;;;;;;20.47;18.30;;;14.30;99.90;;;;;;5091543;28;20924;-65
2021/09/07 06:36:58;;;;;;;18.50;15.70;;;14.30;99.90;;;;;;5091743;28;20541;-65
2021/09/07 06:39:25;;;;;;;19.10;15.67;;;14.40;99.90;;;;;;5091665;28;20448;-65
2021/09/07 06:41:53;;;;;;;19.07;17.17;;;14.50;99.90;;;;;;5091207;28;20449;-65
2021/09/07 06:44:19;;;;;;;21.77;17.63;;;14.60;99.90;;;;;;5091153;28;20549;-65
2021/09/07 06:46:46;;;;;;;21.00;18.33;;;14.70;99.90;;;;;;5088707;28;20444;-64
2021/09/07 06:49:14;;;;;;;18.97;16.60;;;14.80;99.90;;;;;;5083104;28;21131;-65
2021/09/07 06:51:41;;;;;;;23.27;18.20;;;14.90;99.90;;;;;;5083701;28;20448;-64
2021/09/07 06:54:08;;;;;;;19.00;17.00;;;14.90;99.90;;;;;;5085179;28;20469;-65
2021/09/07 06:56:35;;;;;;;19.40;17.23;;;15.00;99.90;;;;;;5090512;28;20450;-65
2021/09/07 06:59:02;;;;;;;19.77;17.70;;;15.10;99.90;;;;;;5090799;28;20449;-66
2021/09/07 07:01:29;;;;;;;19.13;17.07;;;15.30;99.90;;;;;;5086587;28;20453;-65
2021/09/07 07:03:56;;;;;;;18.43;16.43;;;15.50;99.90;;;;;;5090932;28;20474;-65
2021/09/07 07:06:24;;;;;;;19.47;17.00;;;15.70;99.90;;;;;;5086743;28;20462;-64
2021/09/07 07:08:51;;;;;;;20.03;17.33;;;16.00;99.90;;;;;;5075634;28;20577;-64
2021/09/07 07:11:17;;;;;;;18.73;16.73;;;16.20;99.90;;;;;;5087874;28;20458;-64
2021/09/07 07:13:44;;;;;;;21.50;18.03;;;16.40;99.90;;;;;;5074298;28;21023;-64
2021/09/07 07:16:12;;;;;;;18.40;16.40;;;16.60;99.90;;;;;;5077206;28;20482;-64
2021/09/07 07:18:39;;;;;;;18.47;15.90;;;16.70;99.90;;;;;;5089109;28;20526;-64
2021/09/07 07:21:05;;;;;;;18.80;15.07;;;16.80;99.90;;;;;;5090799;28;20452;-64
2021/09/07 07:23:34;;;;;;;16.20;14.50;;;17.10;99.90;;;;;;5089628;28;20470;-65
2021/09/07 07:26:01;;;;;;;26.53;14.60;;;17.20;99.90;;;;;;5090655;28;20446;-65
2021/09/07 07:28:28;;;;;;;15.83;14.00;;;17.40;99.90;;;;;;5089559;28;20852;-65
2021/09/07 07:30:54;;;;;;;22.73;14.93;;;17.40;99.90;;;;;;5090565;28;20450;-65
2021/09/07 07:33:21;;;;;;;18.40;15.10;;;17.40;99.90;;;;;;5090211;28;20472;-64
2021/09/07 07:35:48;;;;;;;15.63;14.00;;;17.60;99.90;;;;;;5090143;28;20552;-65
2021/09/07 07:38:15;;;;;;;18.20;13.97;;;17.80;99.90;;;;;;5087274;28;20446;-65
2021/09/07 07:40:44;;;;;;;16.47;14.00;;;17.90;99.90;;;;;;5084171;28;20457;-65
2021/09/07 07:43:11;;;;;;;16.43;14.80;;;18.20;99.90;;;;;;5088564;28;20621;-66
2021/09/07 07:45:38;;;;;;;16.43;14.63;;;18.20;99.90;;;;;;5085127;28;20446;-67
2021/09/07 07:48:06;;;;;;;14.27;12.77;;;18.30;99.90;;;;;;5087583;28;20505;-66
2021/09/07 07:50:33;;;;;;;14.63;12.93;;;18.50;99.90;;;;;;5090099;28;20549;-66
2021/09/07 07:53:02;;;;;;;14.70;13.10;;;18.70;99.90;;;;;;5089764;28;20446;-66
2021/09/07 07:55:29;;;;;;;13.77;12.37;;;18.80;99.90;;;;;;5089841;28;20496;-66
2021/09/07 07:57:58;;;;;;;15.47;11.90;;;18.90;99.90;;;;;;5090005;28;20443;-66
2021/09/07 08:00:24;;;;;;;15.80;12.50;;;19.10;99.90;;;;;;5090155;28;20450;-65
2021/09/07 08:02:51;;;;;;;15.17;13.43;;;19.10;99.90;;;;;;5090024;28;20541;-66
2021/09/07 08:05:19;;;;;;;14.17;12.67;;;19.10;99.90;;;;;;5087109;28;20505;-66
2021/09/07 08:07:46;;;;;;;15.37;13.73;;;19.30;99.90;;;;;;5089822;28;20488;-66
2021/09/07 08:10:13;;;;;;;13.13;11.93;;;19.50;99.90;;;;;;5080956;28;20459;-69
2021/09/07 08:12:41;;;;;;;12.30;11.10;;;19.40;99.90;;;;;;5075931;28;20530;-66
2021/09/07 08:15:10;;;;;;;12.13;10.83;;;19.60;99.90;;;;;;5075334;28;20583;-66
2021/09/07 08:17:37;;;;;;;14.53;13.07;;;19.70;99.90;;;;;;5074774;28;20457;-66
2021/09/07 08:20:05;;;;;;;14.43;12.50;;;19.70;99.90;;;;;;5072991;28;20450;-65
2021/09/07 08:22:32;;;;;;;14.17;12.67;;;19.70;99.90;;;;;;5088753;28;20545;-66
2021/09/07 08:24:59;;;;;;;15.43;13.90;;;19.70;99.90;;;;;;5088653;28;20463;-64
2021/09/07 08:27:25;;;;;;;14.03;12.60;;;19.80;99.90;;;;;;5082410;28;20763;-64
2021/09/07 08:29:52;;;;;;;13.13;11.83;;;19.80;99.90;;;;;;5085768;28;20454;-64
2021/09/07 08:32:20;;;;;;;13.33;12.00;;;19.70;99.90;;;;;;5088641;28;20443;-64
2021/09/07 08:34:47;;;;;;;13.60;12.20;;;19.90;99.90;;;;;;5089333;28;20468;-64
2021/09/07 08:37:14;;;;;;;16.00;13.50;;;20.10;99.90;;;;;;5079680;28;20527;-64
2021/09/07 08:39:41;;;;;;;11.47;10.13;;;20.20;99.90;;;;;;5077199;28;20536;-65
2021/09/07 08:42:12;;;;;;;16.87;11.97;;;20.30;99.90;;;;;;5085588;28;20465;-65
2021/09/07 08:44:45;;;;;;;12.83;11.53;;;20.50;99.90;;;;;;5085145;28;20462;-66
2021/09/07 08:47:14;;;;;;;12.00;10.80;;;20.50;99.90;;;;;;5084521;28;20461;-66
2021/09/07 08:49:43;;;;;;;12.47;10.93;;;20.60;99.90;;;;;;5085287;28;20473;-66
2021/09/07 08:52:11;;;;;;;11.10;10.00;;;20.70;99.90;;;;;;5085697;28;20470;-66
2021/09/07 08:54:38;;;;;;;11.80;10.33;;;20.90;99.90;;;;;;5083268;28;21088;-65
2021/09/07 08:57:05;;;;;;;14.63;10.63;;;21.20;99.90;;;;;;5085672;28;20576;-65
2021/09/07 08:59:33;;;;;;;18.23;12.33;;;21.50;99.90;;;;;;5084491;28;20449;-64
2021/09/07 09:02:12;;;;;;;13.33;11.13;;;21.80;99.90;;;;;;5080320;28;20446;-64
2021/09/07 09:04:40;;;;;;;12.93;10.57;;;22.20;99.90;;;;;;5078436;28;20467;-65
2021/09/07 09:07:16;;;;;;;18.57;10.10;;;22.40;99.90;;;;;;5088183;28;20923;-64
2021/09/07 09:09:45;;;;;;;16.30;10.30;;;22.70;99.90;;;;;;5085689;28;20862;-65
2021/09/07 09:12:12;;;;;;;13.23;10.37;;;23.10;99.90;;;;;;5091608;28;20474;-65
2021/09/07 09:14:40;;;;;;;11.50;10.30;;;23.30;99.90;;;;;;5092350;28;20468;-65
2021/09/07 09:17:27;;;;;;;11.07;9.97;;;23.50;99.90;;;;;;5092108;28;20453;-65
2021/09/07 09:19:55;;;;;;;11.00;9.40;;;23.70;99.90;;;;;;5092435;28;20525;-65
2021/09/07 09:22:41;;;;;;;11.53;9.77;;;24.20;99.90;;;;;;5092003;28;20453;-65
2021/09/07 09:25:25;;;;;;;10.33;8.93;;;24.30;99.90;;;;;;5091694;28;20465;-65
2021/09/07 09:28:08;;;;;;;11.93;8.80;;;24.60;99.90;;;;;;5092214;28;20533;-66
2021/09/07 09:30:37;;;;;;;10.17;9.07;;;25.00;99.90;;;;;;5092210;28;20973;-66
2021/09/07 09:33:05;;;;;;;176.50;23.90;;;25.30;99.90;;;;;;5091777;28;20460;-65
2021/09/07 09:35:43;;;;;;;130.63;82.47;;;25.50;99.90;;;;;;5092068;28;20450;-65
2021/09/07 09:38:11;;;;;;;1992.40;999.90;;;25.50;99.70;;;;;;5091857;28;20420;-65
2021/09/07 09:40:38;;;;;;;1999.90;999.90;;;25.80;99.10;;;;;;5091649;28;20448;-65
2021/09/07 09:43:20;;;;;;;954.53;887.43;;;26.00;98.60;;;;;;5091576;28;20469;-65
2021/09/07 09:45:47;;;;;;;1999.90;999.90;;;26.20;95.80;;;;;;5091966;28;20438;-65
2021/09/07 09:48:22;;;;;;;1999.90;999.90;;;26.30;96.00;;;;;;5092463;28;20482;-65
2021/09/07 09:50:51;;;;;;;1999.90;999.90;;;26.40;95.70;;;;;;5093620;28;20446;-65
2021/09/07 09:53:20;;;;;;;1999.90;999.90;;;26.40;95.10;;;;;;5094279;28;20462;-65
2021/09/07 09:55:48;;;;;;;1999.90;999.90;;;26.20;96.40;;;;;;5095194;28;21150;-65
2021/09/07 09:58:16;;;;;;;1385.33;999.90;;;26.20;97.40;;;;;;5094992;28;20446;-65
2021/09/07 10:00:45;;;;;;;1165.87;999.90;;;26.40;95.90;;;;;;5074101;28;20447;-65
2021/09/07 10:03:13;;;;;;;996.90;932.40;;;26.80;96.00;;;;;;5071850;28;20825;-66
2021/09/07 10:05:40;;;;;;;707.80;674.70;;;26.90;94.30;;;;;;5072299;28;20477;-66
2021/09/07 10:08:08;;;;;;;310.40;299.60;;;27.20;94.40;;;;;;5072261;28;20443;-66
2021/09/07 10:10:38;;;;;;;144.57;139.47;;;27.40;93.80;;;;;;5077522;28;20465;-65
2021/09/07 10:13:08;;;;;;;19.60;18.17;;;27.70;93.60;;;;;;5081473;28;20545;-65
2021/09/07 10:15:38;;;;;;;16.23;9.27;;;27.70;93.30;;;;;;5080944;28;20999;-65
2021/09/07 10:21:14;;;;;;;10.17;8.90;;;27.50;92.40;;;;;;5080662;28;20450;-65
2021/09/07 10:23:58;;;;;;;11.93;8.77;;;28.00;93.50;;;;;;5078339;28;20466;-65
2021/09/07 10:26:57;;;;;;;10.33;8.43;;;28.50;92.00;;;;;;5086976;28;20463;-67
2021/09/07 10:29:45;;;;;;;9.87;8.57;;;28.90;92.20;;;;;;5073653;28;20561;-66
2021/09/07 10:32:39;;;;;;;8.93;7.83;;;28.80;89.20;;;;;;5083376;28;20449;-66
2021/09/07 10:35:12;;;;;;;9.93;8.63;;;28.40;90.70;;;;;;5078430;28;20473;-66
2021/09/07 10:38:09;;;;;;;10.10;8.30;;;28.50;91.90;;;;;;5080245;28;20475;-66
2021/09/07 10:40:44;;;;;;;10.07;9.03;;;29.00;91.00;;;;;;5080062;28;20454;-65
2021/09/07 10:43:11;;;;;;;10.27;9.10;;;28.50;88.00;;;;;;5082616;28;20547;-66
2021/09/07 10:45:40;;;;;;;10.13;9.03;;;28.30;87.90;;;;;;5091293;28;20444;-64
2021/09/07 10:48:30;;;;;;;11.33;8.47;;;28.60;90.60;;;;;;5086181;28;20492;-65
2021/09/07 10:51:00;;;;;;;410.70;382.53;;;29.20;90.30;;;;;;5091301;28;20442;-65
2021/09/07 10:53:27;;;;;;;565.20;541.90;;;29.60;90.80;;;;;;5091199;28;20558;-64
2021/09/07 10:55:54;;;;;;;120.57;115.90;;;30.00;89.50;;;;;;5091508;28;20517;-64
2021/09/07 10:58:34;;;;;;;13.10;8.73;;;30.20;86.50;;;;;;5091555;28;21030;-65
2021/09/07 11:01:26;;;;;;;11.07;8.47;;;30.50;79.20;;;;;;5091417;28;20445;-65
2021/09/07 11:04:26;;;;;;;12.13;8.30;;;30.70;81.00;;;;;;5091497;28;20462;-64
2021/09/07 11:06:53;;;;;;;11.40;8.43;;;30.90;82.50;;;;;;5091375;28;20460;-65
2021/09/07 11:09:52;;;;;;;9.90;8.90;;;31.40;81.30;;;;;;5091232;28;20486;-64
2021/09/07 11:12:26;;;;;;;9.80;7.93;;;30.90;73.90;;;;;;5090264;28;20484;-65
2021/09/07 11:15:08;;;;;;;11.30;7.70;;;31.20;76.20;;;;;;5090485;28;20549;-67
2021/09/07 11:17:50;;;;;;;9.70;8.63;;;31.80;72.80;;;;;;5086027;28;20697;-67
2021/09/07 11:20:17;;;;;;;10.80;9.37;;;31.40;70.00;;;;;;5090615;28;20455;-65
2021/09/07 11:22:44;;;;;;;10.50;8.00;;;31.40;72.00;;;;;;5090774;28;20446;-65
2021/09/07 11:25:13;;;;;;;9.33;8.43;;;31.20;71.40;;;;;;5089794;28;20473;-65
2021/09/07 11:27:58;;;;;;;12.60;7.90;;;31.10;74.30;;;;;;5089782;28;20442;-65
2021/09/07 11:30:31;;;;;;;9.03;8.13;;;31.70;77.10;;;;;;5090049;28;20499;-65
2021/09/07 11:33:10;;;;;;;8.27;7.47;;;32.20;76.00;;;;;;5090096;28;20845;-66
2021/09/07 11:35:40;;;;;;;8.30;7.50;;;32.80;74.60;;;;;;5090534;28;20460;-65
2021/09/07 11:38:09;;;;;;;9.77;7.20;;;33.10;68.40;;;;;;5090584;28;20570;-65
2021/09/07 11:40:41;;;;;;;12.57;7.23;;;33.70;69.70;;;;;;5089592;28;20472;-66
2021/09/07 11:43:08;;;;;;;19.73;8.13;;;34.30;65.30;;;;;;5088024;28;20446;-64
2021/09/07 11:45:36;;;;;;;12.23;7.47;;;34.30;63.90;;;;;;5080586;28;20939;-65
2021/09/07 11:48:05;;;;;;;8.77;7.87;;;34.20;64.10;;;;;;5089613;28;20442;-65
2021/09/07 11:50:35;;;;;;;9.37;7.80;;;34.30;63.70;;;;;;5090174;28;20501;-65
2021/09/07 11:53:05;;;;;;;8.10;7.17;;;34.70;62.10;;;;;;5083102;28;20456;-64
2021/09/07 11:55:48;;;;;;;8.90;8.07;;;34.80;60.20;;;;;;5089978;28;20447;-64
2021/09/07 11:58:30;;;;;;;8.00;7.20;;;35.40;63.90;;;;;;5090200;28;20928;-65
2021/09/07 12:01:12;;;;;;;7.97;7.17;;;35.40;60.40;;;;;;5076136;28;20455;-65
2021/09/07 12:03:51;;;;;;;7.77;7.00;;;35.30;62.40;;;;;;5070492;28;20488;-65
2021/09/07 12:06:29;;;;;;;8.37;7.60;;;35.40;60.00;;;;;;5067644;28;20548;-65
2021/09/07 12:08:56;;;;;;;7.93;7.23;;;34.90;58.40;;;;;;5071762;28;20478;-66
2021/09/07 12:11:32;;;;;;;8.20;7.40;;;35.20;59.70;;;;;;5072333;28;20461;-66
2021/09/07 12:14:06;;;;;;;8.10;7.40;;;35.40;58.00;;;;;;5081972;28;20548;-66
2021/09/07 12:16:33;;;;;;;1999.90;999.90;;;36.30;57.90;;;;;;5075590;28;20444;-66
2021/09/07 12:19:20;;;;;;;1999.90;999.90;;;37.00;59.30;;;;;;5074499;28;20455;-66
2021/09/07 12:22:12;;;;;;;1999.90;999.90;;;37.50;51.60;;;;;;5066499;28;20462;-66
2021/09/07 12:24:40;;;;;;;1999.90;999.90;;;37.10;54.50;;;;;;5073178;28;20459;-66
2021/09/07 12:27:20;;;;;;;1999.90;999.90;;;37.00;57.20;;;;;;5077732;28;20534;-66
2021/09/07 12:30:14;;;;;;;1999.90;999.90;;;37.00;55.60;;;;;;5076979;28;20505;-65
2021/09/07 12:32:58;;;;;;;1999.90;999.90;;;36.20;58.00;;;;;;5071760;28;20459;-65
2021/09/07 12:35:38;;;;;;;1999.90;999.90;;;35.80;56.90;;;;;;5076131;28;20449;-66
2021/09/07 12:38:08;;;;;;;1999.90;999.90;;;35.50;56.50;;;;;;5082558;28;20450;-66
2021/09/07 12:40:37;;;;;;;1999.90;999.90;;;34.80;59.30;;;;;;5088443;28;20983;-66